sensor_id;sensor_type;location;lat;lon;timestamp;P1;durP1;ratioP1;P2;durP2;ratioP2
66966;SDS011;53900;51.468;-2.586;2023-02-28T00:01:35;8.10;;;1.70;;
66966;SDS011;53900;51.468;-2.586;2023-02-28T00:04:00;4.82;;;1.48;;
66966;SDS011;53900;51.468;-2.586;2023-02-28T00:06:26;2.85;;;1.25;;
66966;SDS011;53900;51.468;-2.586;2023-02-28T00:08:51;4.40;;;1.52;;
66966;SDS011;53900;51.468;-2.586;2023-02-28T00:11:16;5.03;;;2.05;;
66966;SDS011;53900;51.468;-2.586;2023-02-28T00:13:42;7.90;;;1.60;;
66966;SDS011;53900;51.468;-2.586;2023-02-28T00:16:10;7.30;;;1.92;;
66966;SDS011;53900;51.468;-2.586;2023-02-28T00:18:36;7.40;;;1.73;;
66966;SDS011;53900;51.468;-2.586;2023-02-28T00:21:02;7.25;;;1.70;;
66966;SDS011;53900;51.468;-2.586;2023-02-28T00:23:27;9.35;;;1.75;;
66966;SDS011;53900;51.468;-2.586;2023-02-28T00:25:52;10.98;;;2.83;;
66966;SDS011;53900;51.468;-2.586;2023-02-28T00:28:18;7.72;;;2.90;;
66966;SDS011;53900;51.468;-2.586;2023-02-28T00:30:43;13.95;;;3.83;;
66966;SDS011;53900;51.468;-2.586;2023-02-28T00:33:08;10.27;;;2.35;;
66966;SDS011;53900;51.468;-2.586;2023-02-28T00:35:34;7.63;;;1.60;;
66966;SDS011;53900;51.468;-2.586;2023-02-28T00:37:59;11.73;;;2.45;;
66966;SDS011;53900;51.468;-2.586;2023-02-28T00:40:24;6.13;;;1.80;;
66966;SDS011;53900;51.468;-2.586;2023-02-28T00:42:49;3.17;;;1.38;;
66966;SDS011;53900;51.468;-2.586;2023-02-28T00:45:15;7.78;;;2.17;;
66966;SDS011;53900;51.468;-2.586;2023-02-28T00:47:40;8.43;;;2.60;;
66966;SDS011;53900;51.468;-2.586;2023-02-28T00:50:05;5.65;;;2.20;;
66966;SDS011;53900;51.468;-2.586;2023-02-28T00:52:31;8.25;;;1.85;;
66966;SDS011;53900;51.468;-2.586;2023-02-28T00:54:56;6.65;;;1.70;;
66966;SDS011;53900;51.468;-2.586;2023-02-28T00:57:21;5.53;;;2.08;;
66966;SDS011;53900;51.468;-2.586;2023-02-28T00:59:46;5.72;;;2.10;;
66966;SDS011;53900;51.468;-2.586;2023-02-28T01:02:12;7.60;;;2.35;;
66966;SDS011;53900;51.468;-2.586;2023-02-28T01:04:37;9.00;;;2.13;;
66966;SDS011;53900;51.468;-2.586;2023-02-28T01:07:02;7.43;;;2.28;;
66966;SDS011;53900;51.468;-2.586;2023-02-28T01:09:27;10.40;;;1.90;;
66966;SDS011;53900;51.468;-2.586;2023-02-28T01:11:53;8.02;;;1.73;;
66966;SDS011;53900;51.468;-2.586;2023-02-28T01:14:18;3.22;;;1.40;;
66966;SDS011;53900;51.468;-2.586;2023-02-28T01:16:43;4.90;;;1.40;;
66966;SDS011;53900;51.468;-2.586;2023-02-28T01:19:08;11.27;;;1.70;;
66966;SDS011;53900;51.468;-2.586;2023-02-28T01:21:34;6.82;;;1.48;;
66966;SDS011;53900;51.468;-2.586;2023-02-28T01:24:00;4.15;;;1.65;;
66966;SDS011;53900;51.468;-2.586;2023-02-28T01:26:25;3.75;;;1.30;;
66966;SDS011;53900;51.468;-2.586;2023-02-28T01:28:51;7.35;;;1.48;;
66966;SDS011;53900;51.468;-2.586;2023-02-28T01:31:18;6.40;;;1.40;;
66966;SDS011;53900;51.468;-2.586;2023-02-28T01:33:43;1.85;;;1.08;;
66966;SDS011;53900;51.468;-2.586;2023-02-28T01:36:12;7.03;;;1.30;;
66966;SDS011;53900;51.468;-2.586;2023-02-28T01:38:38;2.47;;;1.20;;
66966;SDS011;53900;51.468;-2.586;2023-02-28T01:41:04;4.43;;;1.23;;
66966;SDS011;53900;51.468;-2.586;2023-02-28T01:43:52;4.53;;;1.65;;
66966;SDS011;53900;51.468;-2.586;2023-02-28T01:46:17;6.22;;;1.73;;
66966;SDS011;53900;51.468;-2.586;2023-02-28T01:48:45;3.88;;;1.60;;
66966;SDS011;53900;51.468;-2.586;2023-02-28T01:51:12;8.38;;;2.08;;
66966;SDS011;53900;51.468;-2.586;2023-02-28T01:53:48;8.05;;;1.55;;
66966;SDS011;53900;51.468;-2.586;2023-02-28T01:56:15;5.07;;;2.13;;
66966;SDS011;53900;51.468;-2.586;2023-02-28T01:58:45;7.53;;;2.38;;
66966;SDS011;53900;51.468;-2.586;2023-02-28T02:01:11;8.68;;;2.15;;
66966;SDS011;53900;51.468;-2.586;2023-02-28T02:03:45;7.35;;;1.58;;
66966;SDS011;53900;51.468;-2.586;2023-02-28T02:06:10;6.20;;;1.83;;
66966;SDS011;53900;51.468;-2.586;2023-02-28T02:08:36;2.65;;;1.80;;
66966;SDS011;53900;51.468;-2.586;2023-02-28T02:11:01;7.47;;;1.90;;
66966;SDS011;53900;51.468;-2.586;2023-02-28T02:13:38;2.35;;;1.45;;
66966;SDS011;53900;51.468;-2.586;2023-02-28T02:18:46;3.40;;;1.40;;
66966;SDS011;53900;51.468;-2.586;2023-02-28T02:31:33;5.43;;;1.77;;
66966;SDS011;53900;51.468;-2.586;2023-02-28T02:34:17;7.82;;;1.52;;
66966;SDS011;53900;51.468;-2.586;2023-02-28T02:42:02;5.25;;;1.20;;
66966;SDS011;53900;51.468;-2.586;2023-02-28T02:47:27;5.38;;;1.45;;
66966;SDS011;53900;51.468;-2.586;2023-02-28T02:49:55;5.28;;;1.40;;
66966;SDS011;53900;51.468;-2.586;2023-02-28T02:52:22;5.30;;;1.45;;
66966;SDS011;53900;51.468;-2.586;2023-02-28T02:54:48;5.63;;;1.58;;
66966;SDS011;53900;51.468;-2.586;2023-02-28T02:57:15;5.47;;;1.60;;
66966;SDS011;53900;51.468;-2.586;2023-02-28T02:59:43;3.75;;;1.85;;
66966;SDS011;53900;51.468;-2.586;2023-02-28T03:02:10;6.55;;;1.98;;
66966;SDS011;53900;51.468;-2.586;2023-02-28T03:04:38;7.15;;;2.30;;
66966;SDS011;53900;51.468;-2.586;2023-02-28T03:07:05;6.70;;;2.27;;
66966;SDS011;53900;51.468;-2.586;2023-02-28T03:09:32;6.32;;;2.13;;
66966;SDS011;53900;51.468;-2.586;2023-02-28T03:11:57;6.10;;;2.00;;
66966;SDS011;53900;51.468;-2.586;2023-02-28T03:14:40;6.05;;;1.70;;
66966;SDS011;53900;51.468;-2.586;2023-02-28T03:22:43;4.60;;;1.50;;
66966;SDS011;53900;51.468;-2.586;2023-02-28T03:27:40;3.97;;;1.45;;
66966;SDS011;53900;51.468;-2.586;2023-02-28T03:30:11;6.63;;;1.70;;
66966;SDS011;53900;51.468;-2.586;2023-02-28T03:32:42;5.63;;;1.52;;
66966;SDS011;53900;51.468;-2.586;2023-02-28T03:35:11;3.45;;;1.50;;
66966;SDS011;53900;51.468;-2.586;2023-02-28T03:37:38;4.30;;;1.63;;
66966;SDS011;53900;51.468;-2.586;2023-02-28T03:40:06;5.45;;;1.40;;
66966;SDS011;53900;51.468;-2.586;2023-02-28T03:42:34;3.00;;;1.98;;
66966;SDS011;53900;51.468;-2.586;2023-02-28T03:45:01;7.00;;;2.03;;
66966;SDS011;53900;51.468;-2.586;2023-02-28T03:52:18;4.55;;;1.65;;
66966;SDS011;53900;51.468;-2.586;2023-02-28T03:54:46;4.18;;;1.40;;
66966;SDS011;53900;51.468;-2.586;2023-02-28T03:59:45;5.30;;;2.10;;
66966;SDS011;53900;51.468;-2.586;2023-02-28T04:02:12;4.25;;;1.58;;
66966;SDS011;53900;51.468;-2.586;2023-02-28T04:04:37;3.13;;;1.55;;
66966;SDS011;53900;51.468;-2.586;2023-02-28T04:07:03;8.82;;;2.03;;
66966;SDS011;53900;51.468;-2.586;2023-02-28T04:09:29;2.00;;;1.52;;
66966;SDS011;53900;51.468;-2.586;2023-02-28T04:11:54;5.55;;;1.90;;
66966;SDS011;53900;51.468;-2.586;2023-02-28T04:14:22;5.22;;;2.17;;
66966;SDS011;53900;51.468;-2.586;2023-02-28T04:16:48;3.35;;;1.98;;
66966;SDS011;53900;51.468;-2.586;2023-02-28T04:19:13;4.47;;;2.03;;
66966;SDS011;53900;51.468;-2.586;2023-02-28T04:24:04;5.38;;;1.63;;
66966;SDS011;53900;51.468;-2.586;2023-02-28T04:26:33;10.60;;;2.03;;
66966;SDS011;53900;51.468;-2.586;2023-02-28T04:28:59;4.23;;;2.50;;
66966;SDS011;53900;51.468;-2.586;2023-02-28T04:31:25;2.75;;;2.03;;
66966;SDS011;53900;51.468;-2.586;2023-02-28T04:33:50;4.40;;;2.00;;
66966;SDS011;53900;51.468;-2.586;2023-02-28T04:36:15;3.50;;;1.98;;
66966;SDS011;53900;51.468;-2.586;2023-02-28T04:38:42;10.05;;;2.22;;
66966;SDS011;53900;51.468;-2.586;2023-02-28T04:41:08;6.00;;;2.25;;
66966;SDS011;53900;51.468;-2.586;2023-02-28T04:43:33;4.80;;;1.90;;
66966;SDS011;53900;51.468;-2.586;2023-02-28T04:46:00;2.90;;;1.80;;
66966;SDS011;53900;51.468;-2.586;2023-02-28T04:48:29;3.67;;;1.88;;
66966;SDS011;53900;51.468;-2.586;2023-02-28T04:50:55;4.38;;;1.98;;
66966;SDS011;53900;51.468;-2.586;2023-02-28T04:53:20;3.67;;;1.90;;
66966;SDS011;53900;51.468;-2.586;2023-02-28T04:55:46;2.88;;;1.92;;
66966;SDS011;53900;51.468;-2.586;2023-02-28T04:58:11;5.40;;;2.08;;
66966;SDS011;53900;51.468;-2.586;2023-02-28T05:00:37;4.60;;;2.30;;
66966;SDS011;53900;51.468;-2.586;2023-02-28T05:03:02;6.93;;;2.30;;
66966;SDS011;53900;51.468;-2.586;2023-02-28T05:05:27;4.30;;;2.00;;
66966;SDS011;53900;51.468;-2.586;2023-02-28T05:07:52;5.38;;;2.13;;
66966;SDS011;53900;51.468;-2.586;2023-02-28T05:10:18;3.13;;;2.30;;
66966;SDS011;53900;51.468;-2.586;2023-02-28T05:12:43;4.78;;;2.10;;
66966;SDS011;53900;51.468;-2.586;2023-02-28T05:15:10;2.78;;;1.73;;
66966;SDS011;53900;51.468;-2.586;2023-02-28T05:17:37;6.40;;;2.30;;
66966;SDS011;53900;51.468;-2.586;2023-02-28T05:20:02;3.85;;;2.20;;
66966;SDS011;53900;51.468;-2.586;2023-02-28T05:22:29;4.90;;;2.35;;
66966;SDS011;53900;51.468;-2.586;2023-02-28T05:24:54;7.88;;;2.47;;
66966;SDS011;53900;51.468;-2.586;2023-02-28T05:27:20;4.50;;;2.50;;
66966;SDS011;53900;51.468;-2.586;2023-02-28T05:29:45;6.85;;;2.17;;
66966;SDS011;53900;51.468;-2.586;2023-02-28T05:32:11;7.00;;;2.47;;
66966;SDS011;53900;51.468;-2.586;2023-02-28T05:34:39;4.20;;;2.13;;
66966;SDS011;53900;51.468;-2.586;2023-02-28T05:37:05;2.50;;;1.80;;
66966;SDS011;53900;51.468;-2.586;2023-02-28T05:39:31;3.63;;;2.03;;
66966;SDS011;53900;51.468;-2.586;2023-02-28T05:41:57;3.42;;;2.00;;
66966;SDS011;53900;51.468;-2.586;2023-02-28T05:44:23;3.47;;;1.95;;
66966;SDS011;53900;51.468;-2.586;2023-02-28T05:46:48;4.47;;;2.28;;
66966;SDS011;53900;51.468;-2.586;2023-02-28T05:49:13;3.38;;;2.03;;
66966;SDS011;53900;51.468;-2.586;2023-02-28T05:51:38;3.72;;;1.90;;
66966;SDS011;53900;51.468;-2.586;2023-02-28T05:54:04;2.05;;;1.85;;
66966;SDS011;53900;51.468;-2.586;2023-02-28T05:56:30;2.85;;;1.88;;
66966;SDS011;53900;51.468;-2.586;2023-02-28T05:58:55;5.35;;;2.20;;
66966;SDS011;53900;51.468;-2.586;2023-02-28T06:03:46;3.30;;;2.10;;
66966;SDS011;53900;51.468;-2.586;2023-02-28T06:06:11;3.35;;;2.53;;
66966;SDS011;53900;51.468;-2.586;2023-02-28T06:08:36;5.10;;;2.65;;
66966;SDS011;53900;51.468;-2.586;2023-02-28T06:11:04;6.13;;;3.03;;
66966;SDS011;53900;51.468;-2.586;2023-02-28T06:13:29;6.32;;;2.65;;
66966;SDS011;53900;51.468;-2.586;2023-02-28T06:15:55;5.72;;;2.83;;
66966;SDS011;53900;51.468;-2.586;2023-02-28T06:18:20;3.28;;;2.40;;
66966;SDS011;53900;51.468;-2.586;2023-02-28T06:20:51;3.55;;;2.50;;
66966;SDS011;53900;51.468;-2.586;2023-02-28T06:23:18;3.58;;;2.50;;
66966;SDS011;53900;51.468;-2.586;2023-02-28T06:25:44;3.88;;;2.80;;
66966;SDS011;53900;51.468;-2.586;2023-02-28T06:28:09;7.07;;;3.90;;
66966;SDS011;53900;51.468;-2.586;2023-02-28T06:30:36;4.35;;;2.90;;
66966;SDS011;53900;51.468;-2.586;2023-02-28T06:33:01;4.18;;;3.40;;
66966;SDS011;53900;51.468;-2.586;2023-02-28T06:35:26;5.80;;;3.58;;
66966;SDS011;53900;51.468;-2.586;2023-02-28T06:37:52;5.40;;;3.78;;
66966;SDS011;53900;51.468;-2.586;2023-02-28T06:40:17;7.03;;;3.85;;
66966;SDS011;53900;51.468;-2.586;2023-02-28T06:42:42;7.22;;;5.28;;
66966;SDS011;53900;51.468;-2.586;2023-02-28T06:45:08;6.65;;;4.30;;
66966;SDS011;53900;51.468;-2.586;2023-02-28T06:47:34;8.35;;;4.50;;
66966;SDS011;53900;51.468;-2.586;2023-02-28T06:49:59;16.75;;;5.20;;
66966;SDS011;53900;51.468;-2.586;2023-02-28T06:52:26;8.43;;;5.55;;
66966;SDS011;53900;51.468;-2.586;2023-02-28T06:54:51;7.75;;;5.57;;
66966;SDS011;53900;51.468;-2.586;2023-02-28T06:57:25;6.35;;;5.13;;
66966;SDS011;53900;51.468;-2.586;2023-02-28T06:59:50;9.75;;;5.90;;
66966;SDS011;53900;51.468;-2.586;2023-02-28T07:02:15;7.72;;;5.65;;
66966;SDS011;53900;51.468;-2.586;2023-02-28T07:04:40;9.40;;;5.30;;
66966;SDS011;53900;51.468;-2.586;2023-02-28T07:07:09;10.32;;;5.93;;
66966;SDS011;53900;51.468;-2.586;2023-02-28T07:09:34;8.38;;;5.63;;
66966;SDS011;53900;51.468;-2.586;2023-02-28T07:12:00;8.02;;;6.05;;
66966;SDS011;53900;51.468;-2.586;2023-02-28T07:14:25;12.55;;;5.70;;
66966;SDS011;53900;51.468;-2.586;2023-02-28T07:16:51;7.75;;;5.47;;
66966;SDS011;53900;51.468;-2.586;2023-02-28T07:19:16;7.15;;;5.43;;
66966;SDS011;53900;51.468;-2.586;2023-02-28T07:21:41;8.02;;;5.53;;
66966;SDS011;53900;51.468;-2.586;2023-02-28T07:24:06;7.88;;;5.00;;
66966;SDS011;53900;51.468;-2.586;2023-02-28T07:26:32;7.00;;;5.47;;
66966;SDS011;53900;51.468;-2.586;2023-02-28T07:28:59;6.15;;;5.00;;
66966;SDS011;53900;51.468;-2.586;2023-02-28T07:31:24;7.65;;;5.20;;
66966;SDS011;53900;51.468;-2.586;2023-02-28T07:33:49;7.97;;;5.35;;
66966;SDS011;53900;51.468;-2.586;2023-02-28T07:36:16;8.15;;;5.88;;
66966;SDS011;53900;51.468;-2.586;2023-02-28T07:38:43;9.75;;;5.70;;
66966;SDS011;53900;51.468;-2.586;2023-02-28T07:41:09;7.85;;;5.03;;
66966;SDS011;53900;51.468;-2.586;2023-02-28T07:43:34;10.55;;;5.28;;
66966;SDS011;53900;51.468;-2.586;2023-02-28T07:46:07;6.95;;;5.40;;
66966;SDS011;53900;51.468;-2.586;2023-02-28T07:48:32;8.57;;;5.70;;
66966;SDS011;53900;51.468;-2.586;2023-02-28T07:50:58;7.13;;;5.50;;
66966;SDS011;53900;51.468;-2.586;2023-02-28T07:53:23;10.68;;;5.90;;
66966;SDS011;53900;51.468;-2.586;2023-02-28T07:55:49;6.80;;;5.00;;
66966;SDS011;53900;51.468;-2.586;2023-02-28T07:58:14;10.45;;;5.88;;
66966;SDS011;53900;51.468;-2.586;2023-02-28T08:00:39;7.70;;;4.82;;
66966;SDS011;53900;51.468;-2.586;2023-02-28T08:03:04;7.03;;;4.82;;
66966;SDS011;53900;51.468;-2.586;2023-02-28T08:05:30;8.02;;;4.90;;
66966;SDS011;53900;51.468;-2.586;2023-02-28T08:07:55;6.15;;;4.28;;
66966;SDS011;53900;51.468;-2.586;2023-02-28T08:10:21;7.93;;;4.45;;
66966;SDS011;53900;51.468;-2.586;2023-02-28T08:12:46;6.55;;;4.53;;
66966;SDS011;53900;51.468;-2.586;2023-02-28T08:15:11;4.88;;;4.13;;
66966;SDS011;53900;51.468;-2.586;2023-02-28T08:17:37;5.18;;;3.40;;
66966;SDS011;53900;51.468;-2.586;2023-02-28T08:20:02;5.70;;;4.15;;
66966;SDS011;53900;51.468;-2.586;2023-02-28T08:22:29;7.35;;;4.22;;
66966;SDS011;53900;51.468;-2.586;2023-02-28T08:24:54;5.88;;;3.70;;
66966;SDS011;53900;51.468;-2.586;2023-02-28T08:27:19;5.57;;;3.55;;
66966;SDS011;53900;51.468;-2.586;2023-02-28T08:29:44;5.57;;;3.80;;
66966;SDS011;53900;51.468;-2.586;2023-02-28T08:32:09;4.88;;;3.40;;
66966;SDS011;53900;51.468;-2.586;2023-02-28T08:34:35;5.75;;;3.50;;
66966;SDS011;53900;51.468;-2.586;2023-02-28T08:37:00;5.93;;;3.97;;
66966;SDS011;53900;51.468;-2.586;2023-02-28T08:39:25;6.03;;;4.43;;
66966;SDS011;53900;51.468;-2.586;2023-02-28T08:41:50;9.77;;;4.40;;
66966;SDS011;53900;51.468;-2.586;2023-02-28T08:44:16;7.00;;;4.53;;
66966;SDS011;53900;51.468;-2.586;2023-02-28T08:46:41;8.73;;;4.78;;
66966;SDS011;53900;51.468;-2.586;2023-02-28T08:49:06;8.18;;;5.85;;
66966;SDS011;53900;51.468;-2.586;2023-02-28T08:51:32;6.75;;;5.43;;
66966;SDS011;53900;51.468;-2.586;2023-02-28T08:53:58;9.20;;;5.63;;
66966;SDS011;53900;51.468;-2.586;2023-02-28T08:56:24;20.15;;;5.75;;
66966;SDS011;53900;51.468;-2.586;2023-02-28T08:58:50;9.02;;;5.78;;
66966;SDS011;53900;51.468;-2.586;2023-02-28T09:01:16;9.70;;;6.10;;
66966;SDS011;53900;51.468;-2.586;2023-02-28T09:03:42;10.55;;;5.82;;
66966;SDS011;53900;51.468;-2.586;2023-02-28T09:06:08;10.93;;;6.43;;
66966;SDS011;53900;51.468;-2.586;2023-02-28T09:08:33;13.77;;;6.18;;
66966;SDS011;53900;51.468;-2.586;2023-02-28T09:10:59;11.48;;;6.97;;
66966;SDS011;53900;51.468;-2.586;2023-02-28T09:13:25;11.32;;;7.20;;
66966;SDS011;53900;51.468;-2.586;2023-02-28T09:15:50;8.70;;;6.03;;
66966;SDS011;53900;51.468;-2.586;2023-02-28T09:18:15;11.85;;;6.55;;
66966;SDS011;53900;51.468;-2.586;2023-02-28T09:20:41;9.90;;;6.78;;
66966;SDS011;53900;51.468;-2.586;2023-02-28T09:23:07;11.13;;;6.72;;
66966;SDS011;53900;51.468;-2.586;2023-02-28T09:25:32;14.38;;;7.18;;
66966;SDS011;53900;51.468;-2.586;2023-02-28T09:27:58;9.73;;;6.60;;
66966;SDS011;53900;51.468;-2.586;2023-02-28T09:30:23;10.80;;;6.63;;
66966;SDS011;53900;51.468;-2.586;2023-02-28T09:32:48;14.80;;;7.35;;
66966;SDS011;53900;51.468;-2.586;2023-02-28T09:35:20;11.52;;;6.95;;
66966;SDS011;53900;51.468;-2.586;2023-02-28T09:37:46;11.27;;;6.00;;
66966;SDS011;53900;51.468;-2.586;2023-02-28T09:40:11;10.43;;;6.65;;
66966;SDS011;53900;51.468;-2.586;2023-02-28T09:42:37;8.65;;;5.95;;
66966;SDS011;53900;51.468;-2.586;2023-02-28T09:45:05;12.85;;;7.05;;
66966;SDS011;53900;51.468;-2.586;2023-02-28T09:47:36;8.25;;;5.95;;
66966;SDS011;53900;51.468;-2.586;2023-02-28T09:50:08;9.40;;;5.78;;
66966;SDS011;53900;51.468;-2.586;2023-02-28T09:52:36;13.20;;;6.65;;
66966;SDS011;53900;51.468;-2.586;2023-02-28T09:55:36;15.15;;;6.30;;
66966;SDS011;53900;51.468;-2.586;2023-02-28T09:57:53;9.82;;;6.95;;
66966;SDS011;53900;51.468;-2.586;2023-02-28T10:00:23;11.32;;;6.63;;
66966;SDS011;53900;51.468;-2.586;2023-02-28T10:03:32;11.30;;;6.70;;
66966;SDS011;53900;51.468;-2.586;2023-02-28T10:05:41;8.18;;;5.72;;
66966;SDS011;53900;51.468;-2.586;2023-02-28T10:08:13;13.93;;;5.93;;
66966;SDS011;53900;51.468;-2.586;2023-02-28T10:13:05;12.13;;;6.13;;
66966;SDS011;53900;51.468;-2.586;2023-02-28T10:15:31;9.13;;;5.90;;
66966;SDS011;53900;51.468;-2.586;2023-02-28T10:17:58;8.40;;;5.65;;
66966;SDS011;53900;51.468;-2.586;2023-02-28T10:20:25;9.93;;;6.07;;
66966;SDS011;53900;51.468;-2.586;2023-02-28T10:23:03;9.10;;;5.63;;
66966;SDS011;53900;51.468;-2.586;2023-02-28T10:25:32;13.57;;;6.47;;
66966;SDS011;53900;51.468;-2.586;2023-02-28T10:28:19;9.73;;;6.07;;
66966;SDS011;53900;51.468;-2.586;2023-02-28T10:30:53;9.32;;;5.25;;
66966;SDS011;53900;51.468;-2.586;2023-02-28T10:33:39;7.80;;;4.82;;
66966;SDS011;53900;51.468;-2.586;2023-02-28T10:36:04;8.27;;;5.22;;
66966;SDS011;53900;51.468;-2.586;2023-02-28T10:38:35;7.65;;;5.10;;
66966;SDS011;53900;51.468;-2.586;2023-02-28T10:43:29;10.65;;;5.63;;
66966;SDS011;53900;51.468;-2.586;2023-02-28T10:48:30;9.73;;;5.82;;
66966;SDS011;53900;51.468;-2.586;2023-02-28T10:50:56;10.27;;;5.75;;
66966;SDS011;53900;51.468;-2.586;2023-02-28T10:56:04;9.52;;;5.93;;
66966;SDS011;53900;51.468;-2.586;2023-02-28T10:58:46;11.17;;;6.07;;
66966;SDS011;53900;51.468;-2.586;2023-02-28T11:01:13;12.80;;;6.32;;
66966;SDS011;53900;51.468;-2.586;2023-02-28T11:03:39;10.05;;;5.97;;
66966;SDS011;53900;51.468;-2.586;2023-02-28T11:06:06;10.50;;;5.78;;
66966;SDS011;53900;51.468;-2.586;2023-02-28T11:08:31;13.63;;;6.15;;
66966;SDS011;53900;51.468;-2.586;2023-02-28T11:11:06;8.88;;;5.75;;
66966;SDS011;53900;51.468;-2.586;2023-02-28T11:13:32;11.20;;;5.90;;
66966;SDS011;53900;51.468;-2.586;2023-02-28T11:15:59;7.68;;;4.85;;
66966;SDS011;53900;51.468;-2.586;2023-02-28T11:21:06;8.27;;;4.97;;
66966;SDS011;53900;51.468;-2.586;2023-02-28T11:23:33;6.88;;;5.13;;
66966;SDS011;53900;51.468;-2.586;2023-02-28T11:26:01;8.18;;;5.60;;
66966;SDS011;53900;51.468;-2.586;2023-02-28T11:31:34;9.07;;;5.70;;
66966;SDS011;53900;51.468;-2.586;2023-02-28T11:33:48;10.57;;;6.43;;
66966;SDS011;53900;51.468;-2.586;2023-02-28T11:38:40;13.60;;;5.80;;
66966;SDS011;53900;51.468;-2.586;2023-02-28T11:46:35;12.77;;;6.07;;
66966;SDS011;53900;51.468;-2.586;2023-02-28T11:51:30;10.75;;;5.70;;
66966;SDS011;53900;51.468;-2.586;2023-02-28T11:56:38;10.77;;;5.70;;
66966;SDS011;53900;51.468;-2.586;2023-02-28T12:04:30;8.82;;;5.03;;
66966;SDS011;53900;51.468;-2.586;2023-02-28T12:06:52;10.90;;;4.85;;
66966;SDS011;53900;51.468;-2.586;2023-02-28T12:11:54;7.65;;;4.55;;
66966;SDS011;53900;51.468;-2.586;2023-02-28T12:14:42;6.60;;;4.50;;
66966;SDS011;53900;51.468;-2.586;2023-02-28T12:19:44;6.13;;;4.22;;
66966;SDS011;53900;51.468;-2.586;2023-02-28T12:24:48;5.57;;;3.55;;
66966;SDS011;53900;51.468;-2.586;2023-02-28T12:27:15;6.13;;;3.95;;
66966;SDS011;53900;51.468;-2.586;2023-02-28T12:32:11;6.35;;;3.17;;
66966;SDS011;53900;51.468;-2.586;2023-02-28T12:34:39;6.28;;;2.72;;
66966;SDS011;53900;51.468;-2.586;2023-02-28T12:37:09;4.70;;;3.25;;
66966;SDS011;53900;51.468;-2.586;2023-02-28T12:39:36;5.65;;;3.22;;
66966;SDS011;53900;51.468;-2.586;2023-02-28T12:42:12;4.30;;;2.58;;
66966;SDS011;53900;51.468;-2.586;2023-02-28T12:47:08;6.60;;;3.13;;
66966;SDS011;53900;51.468;-2.586;2023-02-28T12:49:38;4.45;;;3.05;;
66966;SDS011;53900;51.468;-2.586;2023-02-28T12:52:04;4.72;;;2.65;;
66966;SDS011;53900;51.468;-2.586;2023-02-28T12:54:38;4.15;;;2.75;;
66966;SDS011;53900;51.468;-2.586;2023-02-28T12:59:57;4.25;;;2.80;;
66966;SDS011;53900;51.468;-2.586;2023-02-28T13:10:14;5.70;;;2.72;;
66966;SDS011;53900;51.468;-2.586;2023-02-28T13:12:51;3.65;;;2.65;;
66966;SDS011;53900;51.468;-2.586;2023-02-28T13:17:50;6.32;;;3.22;;
66966;SDS011;53900;51.468;-2.586;2023-02-28T13:20:29;5.72;;;3.50;;
66966;SDS011;53900;51.468;-2.586;2023-02-28T13:22:57;4.80;;;3.58;;
66966;SDS011;53900;51.468;-2.586;2023-02-28T13:27:51;6.38;;;3.60;;
66966;SDS011;53900;51.468;-2.586;2023-02-28T13:33:19;6.32;;;3.85;;
66966;SDS011;53900;51.468;-2.586;2023-02-28T13:35:46;6.32;;;4.00;;
66966;SDS011;53900;51.468;-2.586;2023-02-28T13:38:13;8.00;;;3.75;;
66966;SDS011;53900;51.468;-2.586;2023-02-28T13:40:40;6.05;;;3.35;;
66966;SDS011;53900;51.468;-2.586;2023-02-28T13:43:07;5.85;;;3.40;;
66966;SDS011;53900;51.468;-2.586;2023-02-28T13:45:33;7.38;;;3.67;;
66966;SDS011;53900;51.468;-2.586;2023-02-28T13:48:04;5.95;;;3.63;;
66966;SDS011;53900;51.468;-2.586;2023-02-28T13:50:36;7.93;;;3.40;;
66966;SDS011;53900;51.468;-2.586;2023-02-28T13:55:46;3.63;;;2.80;;
66966;SDS011;53900;51.468;-2.586;2023-02-28T14:05:38;2.50;;;2.17;;
66966;SDS011;53900;51.468;-2.586;2023-02-28T14:08:22;2.58;;;1.98;;
66966;SDS011;53900;51.468;-2.586;2023-02-28T14:10:49;2.75;;;2.05;;
66966;SDS011;53900;51.468;-2.586;2023-02-28T14:18:27;3.40;;;2.00;;
66966;SDS011;53900;51.468;-2.586;2023-02-28T14:21:00;2.65;;;1.60;;
66966;SDS011;53900;51.468;-2.586;2023-02-28T14:23:43;2.70;;;1.90;;
66966;SDS011;53900;51.468;-2.586;2023-02-28T14:26:27;2.33;;;1.90;;
66966;SDS011;53900;51.468;-2.586;2023-02-28T14:29:07;2.63;;;2.10;;
66966;SDS011;53900;51.468;-2.586;2023-02-28T14:31:37;2.50;;;2.03;;
66966;SDS011;53900;51.468;-2.586;2023-02-28T14:36:44;4.13;;;2.33;;
66966;SDS011;53900;51.468;-2.586;2023-02-28T14:39:20;3.42;;;2.42;;
66966;SDS011;53900;51.468;-2.586;2023-02-28T14:41:46;3.10;;;2.45;;
66966;SDS011;53900;51.468;-2.586;2023-02-28T14:44:16;3.28;;;2.03;;
66966;SDS011;53900;51.468;-2.586;2023-02-28T14:46:43;2.75;;;2.10;;
66966;SDS011;53900;51.468;-2.586;2023-02-28T14:52:12;2.40;;;1.80;;
66966;SDS011;53900;51.468;-2.586;2023-02-28T14:54:38;2.42;;;1.95;;
66966;SDS011;53900;51.468;-2.586;2023-02-28T14:57:04;2.08;;;1.88;;
66966;SDS011;53900;51.468;-2.586;2023-02-28T14:59:31;1.95;;;1.67;;
66966;SDS011;53900;51.468;-2.586;2023-02-28T15:04:41;2.70;;;1.95;;
66966;SDS011;53900;51.468;-2.586;2023-02-28T15:07:10;2.65;;;1.75;;
66966;SDS011;53900;51.468;-2.586;2023-02-28T15:09:38;2.80;;;1.77;;
66966;SDS011;53900;51.468;-2.586;2023-02-28T15:12:03;2.22;;;1.85;;
66966;SDS011;53900;51.468;-2.586;2023-02-28T15:14:28;2.70;;;2.10;;
66966;SDS011;53900;51.468;-2.586;2023-02-28T15:16:58;2.92;;;1.80;;
66966;SDS011;53900;51.468;-2.586;2023-02-28T15:19:29;2.35;;;1.65;;
66966;SDS011;53900;51.468;-2.586;2023-02-28T15:22:06;2.92;;;1.92;;
66966;SDS011;53900;51.468;-2.586;2023-02-28T15:24:44;2.83;;;1.77;;
66966;SDS011;53900;51.468;-2.586;2023-02-28T15:27:12;2.47;;;1.70;;
66966;SDS011;53900;51.468;-2.586;2023-02-28T15:29:44;1.92;;;1.83;;
66966;SDS011;53900;51.468;-2.586;2023-02-28T15:32:21;3.65;;;1.85;;
66966;SDS011;53900;51.468;-2.586;2023-02-28T15:34:48;3.33;;;2.15;;
66966;SDS011;53900;51.468;-2.586;2023-02-28T15:37:26;2.78;;;2.10;;
66966;SDS011;53900;51.468;-2.586;2023-02-28T15:39:53;4.05;;;2.00;;
66966;SDS011;53900;51.468;-2.586;2023-02-28T15:42:19;2.78;;;2.03;;
66966;SDS011;53900;51.468;-2.586;2023-02-28T15:44:44;4.43;;;2.40;;
66966;SDS011;53900;51.468;-2.586;2023-02-28T15:47:16;3.00;;;2.20;;
66966;SDS011;53900;51.468;-2.586;2023-02-28T15:49:47;3.28;;;1.75;;
66966;SDS011;53900;51.468;-2.586;2023-02-28T15:52:17;2.30;;;2.10;;
66966;SDS011;53900;51.468;-2.586;2023-02-28T15:54:43;4.57;;;1.92;;
66966;SDS011;53900;51.468;-2.586;2023-02-28T15:57:25;2.33;;;1.92;;
66966;SDS011;53900;51.468;-2.586;2023-02-28T15:59:58;2.65;;;2.00;;
66966;SDS011;53900;51.468;-2.586;2023-02-28T16:02:35;3.70;;;1.73;;
66966;SDS011;53900;51.468;-2.586;2023-02-28T16:05:12;4.78;;;1.60;;
66966;SDS011;53900;51.468;-2.586;2023-02-28T16:07:40;2.63;;;1.45;;
66966;SDS011;53900;51.468;-2.586;2023-02-28T16:10:06;1.40;;;1.20;;
66966;SDS011;53900;51.468;-2.586;2023-02-28T16:12:32;3.08;;;1.70;;
66966;SDS011;53900;51.468;-2.586;2023-02-28T16:14:59;3.47;;;1.60;;
66966;SDS011;53900;51.468;-2.586;2023-02-28T16:17:28;1.63;;;1.52;;
66966;SDS011;53900;51.468;-2.586;2023-02-28T16:19:54;1.73;;;1.50;;
66966;SDS011;53900;51.468;-2.586;2023-02-28T16:22:19;1.70;;;1.60;;
66966;SDS011;53900;51.468;-2.586;2023-02-28T16:24:45;2.42;;;1.80;;
66966;SDS011;53900;51.468;-2.586;2023-02-28T16:27:33;1.52;;;1.30;;
66966;SDS011;53900;51.468;-2.586;2023-02-28T16:29:57;3.15;;;1.25;;
66966;SDS011;53900;51.468;-2.586;2023-02-28T16:32:22;4.18;;;1.73;;
66966;SDS011;53900;51.468;-2.586;2023-02-28T16:34:47;1.70;;;1.40;;
66966;SDS011;53900;51.468;-2.586;2023-02-28T16:37:14;1.60;;;1.40;;
66966;SDS011;53900;51.468;-2.586;2023-02-28T16:39:40;2.22;;;1.50;;
66966;SDS011;53900;51.468;-2.586;2023-02-28T16:42:06;2.97;;;1.60;;
66966;SDS011;53900;51.468;-2.586;2023-02-28T16:44:33;3.38;;;1.50;;
66966;SDS011;53900;51.468;-2.586;2023-02-28T16:47:02;4.32;;;1.60;;